Time;durP1;ratioP1;P1;durP2;ratioP2;P2;SDS_P1;SDS_P2;PMS_P1;PMS_P2;Temp;Humidity;BMP_temperature;BMP_pressure;BME280_temperature;BME280_humidity;BME280_pressure;Samples;Min_cycle;Max_cycle;Signal;HPM_P1;HPM_P2
2023/05/21 00:00:16;;;;;;;17.57;12.67;;;;;;;15.17;100.00;98987.31;4990475;28;20195;-78
2023/05/21 00:02:45;;;;;;;17.23;13.03;;;;;;;15.06;100.00;98997.22;4992479;28;20218;-78
2023/05/21 00:05:15;;;;;;;16.07;12.30;;;;;;;14.77;100.00;98992.53;4987716;28;20309;-77
2023/05/21 00:07:44;;;;;;;16.57;13.13;;;;;;;14.84;100.00;98985.69;4994968;28;20195;-77
2023/05/21 00:10:12;;;;;;;17.53;12.67;;;;;;;14.78;100.00;98978.22;4997102;28;20218;-78
2023/05/21 00:12:43;;;;;;;17.37;13.20;;;;;;;14.97;100.00;98984.66;4988986;28;20562;-79
2023/05/21 00:15:13;;;;;;;16.17;12.43;;;;;;;15.00;100.00;98979.91;4988984;28;20255;-78
2023/05/21 00:17:42;;;;;;;17.87;13.20;;;;;;;15.00;100.00;98984.38;4994822;28;20206;-78
2023/05/21 00:20:11;;;;;;;17.67;12.07;;;;;;;14.98;100.00;98979.19;4992622;28;20294;-78
2023/05/21 00:22:40;;;;;;;19.23;12.27;;;;;;;14.91;100.00;98977.16;4988709;28;20496;-77
2023/05/21 00:25:11;;;;;;;21.50;13.20;;;;;;;15.01;100.00;98967.41;4991430;28;20225;-78
2023/05/21 00:27:40;;;;;;;19.30;13.07;;;;;;;15.04;100.00;98967.97;4992260;28;20234;-78
2023/05/21 00:30:08;;;;;;;16.60;12.93;;;;;;;15.16;100.00;98971.44;4990440;28;20207;-78
2023/05/21 00:32:39;;;;;;;14.70;12.47;;;;;;;15.15;100.00;98959.94;4985485;28;20207;-78
2023/05/21 00:35:08;;;;;;;17.30;12.87;;;;;;;15.17;100.00;98959.78;4990662;28;20195;-78
2023/05/21 00:37:37;;;;;;;18.27;13.40;;;;;;;15.11;100.00;98954.97;4988587;28;20249;-78
2023/05/21 00:40:07;;;;;;;17.20;13.77;;;;;;;15.14;100.00;98952.03;4992548;28;20211;-78
2023/05/21 00:42:38;;;;;;;19.27;12.90;;;;;;;15.24;100.00;98954.75;4991226;28;20218;-78
2023/05/21 00:45:08;;;;;;;16.50;12.23;;;;;;;15.00;100.00;98949.72;4987071;28;20198;-78
2023/05/21 00:47:38;;;;;;;15.43;12.37;;;;;;;15.03;100.00;98944.09;4988816;28;20206;-78
2023/05/21 00:50:07;;;;;;;16.73;13.07;;;;;;;15.04;100.00;98951.13;4993361;28;20215;-78
2023/05/21 00:52:40;;;;;;;17.53;12.97;;;;;;;15.03;100.00;98947.63;4991761;28;20209;-78
2023/05/21 00:55:10;;;;;;;17.40;12.93;;;;;;;15.00;100.00;98947.88;4985249;28;20199;-78
2023/05/21 00:57:39;;;;;;;17.33;13.20;;;;;;;15.02;100.00;98951.25;4987959;28;20211;-78
2023/05/21 01:00:09;;;;;;;20.67;13.90;;;;;;;15.07;100.00;98945.56;4988293;28;20210;-78
2023/05/21 01:02:39;;;;;;;18.83;13.07;;;;;;;15.08;100.00;98949.91;4990591;28;20231;-78
2023/05/21 01:05:08;;;;;;;16.97;12.97;;;;;;;15.14;100.00;98950.19;4986245;28;20206;-78
2023/05/21 01:07:40;;;;;;;17.77;12.47;;;;;;;15.26;100.00;98945.66;4935523;29;20205;-78
2023/05/21 01:10:10;;;;;;;16.00;12.73;;;;;;;14.98;100.00;98949.00;4933259;29;20197;-78
2023/05/21 01:12:43;;;;;;;17.57;12.83;;;;;;;14.86;100.00;98941.09;4924253;29;20225;-78
2023/05/21 01:15:12;;;;;;;18.27;13.23;;;;;;;14.86;100.00;98941.09;4929543;29;20209;-77
2023/05/21 01:17:44;;;;;;;17.80;13.30;;;;;;;15.00;100.00;98941.72;4930589;29;20657;-77
2023/05/21 01:20:16;;;;;;;18.13;14.20;;;;;;;15.00;100.00;98934.56;4933368;29;20707;-78
2023/05/21 01:22:52;;;;;;;20.03;14.10;;;;;;;14.94;100.00;98937.75;4930650;29;20233;-78
2023/05/21 01:25:21;;;;;;;15.30;13.30;;;;;;;14.91;100.00;98939.81;4929183;29;20204;-77
2023/05/21 01:27:50;;;;;;;18.67;14.00;;;;;;;14.97;100.00;98940.16;4928074;29;20215;-78
2023/05/21 01:30:20;;;;;;;19.30;13.97;;;;;;;14.75;100.00;98932.28;4932797;29;20204;-78
2023/05/21 01:32:56;;;;;;;17.93;13.70;;;;;;;14.82;100.00;98930.78;4975014;28;20293;-78
2023/05/21 01:35:29;;;;;;;19.73;14.73;;;;;;;14.72;100.00;98929.88;4992390;28;20202;-78
2023/05/21 01:38:08;;;;;;;18.40;14.30;;;;;;;14.68;100.00;98939.13;4982206;28;20210;-77
2023/05/21 01:40:45;;;;;;;23.13;16.57;;;;;;;14.72;100.00;98936.06;4992551;28;20207;-77
2023/05/21 01:43:15;;;;;;;18.53;14.70;;;;;;;14.71;100.00;98930.84;4987780;28;20202;-78
2023/05/21 01:45:45;;;;;;;23.57;15.57;;;;;;;14.65;100.00;98934.88;4982873;28;20207;-78
2023/05/21 01:48:16;;;;;;;22.80;15.63;;;;;;;14.69;100.00;98936.31;4988314;28;20211;-77
2023/05/21 01:50:46;;;;;;;19.63;14.77;;;;;;;14.71;100.00;98938.84;4982553;28;20199;-77
2023/05/21 01:53:16;;;;;;;20.30;14.73;;;;;;;14.79;100.00;98931.91;4991039;28;20199;-77
2023/05/21 01:55:45;;;;;;;20.60;14.70;;;;;;;14.83;100.00;98935.16;4988171;28;20203;-78
2023/05/21 01:58:15;;;;;;;20.27;14.90;;;;;;;14.78;100.00;98942.69;4985873;28;20207;-77
2023/05/21 02:00:45;;;;;;;19.23;14.43;;;;;;;14.69;100.00;98938.16;4991571;28;20203;-78
2023/05/21 02:03:15;;;;;;;21.73;16.27;;;;;;;14.69;100.00;98940.81;4988596;28;20206;-78
2023/05/21 02:05:43;;;;;;;21.57;15.83;;;;;;;14.80;100.00;98930.09;4989978;28;20564;-77
2023/05/21 02:08:14;;;;;;;20.57;15.23;;;;;;;14.62;100.00;98929.81;4991516;28;20210;-78
2023/05/21 02:10:43;;;;;;;23.47;16.13;;;;;;;14.76;100.00;98932.13;4992072;28;20206;-77
2023/05/21 02:13:12;;;;;;;21.17;15.60;;;;;;;14.80;100.00;98917.59;4988983;28;20227;-78
2023/05/21 02:15:40;;;;;;;23.27;17.00;;;;;;;14.87;100.00;98921.44;4989479;28;20241;-78
2023/05/21 02:18:10;;;;;;;21.43;15.97;;;;;;;14.75;100.00;98916.28;4985516;28;20207;-78
2023/05/21 02:20:38;;;;;;;18.93;14.83;;;;;;;14.73;100.00;98911.09;4986029;28;20278;-78
2023/05/21 02:23:06;;;;;;;17.40;13.70;;;;;;;14.75;100.00;98919.78;4994480;28;20230;-78
2023/05/21 02:25:35;;;;;;;23.30;15.57;;;;;;;14.78;100.00;98918.72;4982616;28;20203;-78
2023/05/21 02:28:06;;;;;;;20.77;15.40;;;;;;;14.77;100.00;98915.19;4990909;28;20214;-78
2023/05/21 02:30:34;;;;;;;21.10;15.23;;;;;;;14.77;100.00;98925.88;4987316;28;20287;-78
2023/05/21 02:33:02;;;;;;;23.90;15.70;;;;;;;14.76;100.00;98918.81;4984204;28;20301;-77
2023/05/21 02:35:31;;;;;;;20.33;15.43;;;;;;;14.76;100.00;98920.63;4981904;28;20206;-78
2023/05/21 02:38:01;;;;;;;21.70;15.10;;;;;;;14.76;100.00;98913.47;4984741;28;20206;-78
2023/05/21 02:40:31;;;;;;;22.47;15.50;;;;;;;14.59;100.00;98924.75;4984458;28;20673;-78
2023/05/21 02:42:59;;;;;;;20.10;15.00;;;;;;;14.59;100.00;98927.41;4985245;28;20206;-78
2023/05/21 02:45:30;;;;;;;20.30;15.27;;;;;;;14.67;100.00;98918.75;4984951;28;20210;-77
2023/05/21 02:47:58;;;;;;;24.87;15.80;;;;;;;14.53;100.00;98923.44;4991243;28;20318;-77
2023/05/21 02:50:27;;;;;;;22.93;16.27;;;;;;;14.61;100.00;98917.47;4987610;28;20547;-78
2023/05/21 02:52:56;;;;;;;21.83;15.57;;;;;;;14.62;100.00;98920.97;4985662;28;20230;-78
2023/05/21 02:55:24;;;;;;;20.53;15.40;;;;;;;14.65;100.00;98923.38;4985700;28;20211;-78
2023/05/21 02:57:53;;;;;;;20.03;15.17;;;;;;;14.82;100.00;98920.13;4982116;28;20230;-78
2023/05/21 03:00:22;;;;;;;21.10;15.87;;;;;;;14.76;100.00;98920.63;4984158;28;20199;-78
2023/05/21 03:02:52;;;;;;;19.03;15.80;;;;;;;14.74;100.00;98922.59;4986307;28;20199;-78
2023/05/21 03:05:20;;;;;;;21.67;15.53;;;;;;;14.70;100.00;98914.03;4985561;28;20222;-78
2023/05/21 03:07:49;;;;;;;23.07;15.10;;;;;;;14.68;100.00;98926.63;4990614;28;20195;-78
2023/05/21 03:10:17;;;;;;;20.43;15.50;;;;;;;14.65;100.00;98918.03;4984462;28;20203;-78
2023/05/21 03:12:45;;;;;;;21.23;15.13;;;;;;;14.72;100.00;98903.22;4986877;28;20266;-78
2023/05/21 03:15:15;;;;;;;19.67;15.07;;;;;;;14.72;100.00;98920.06;4988316;28;20191;-77
2023/05/21 03:17:44;;;;;;;21.73;15.83;;;;;;;14.59;100.00;98917.59;4982100;28;20249;-77
2023/05/21 03:20:15;;;;;;;21.03;15.80;;;;;;;14.47;100.00;98913.28;4987945;28;20201;-78
2023/05/21 03:22:44;;;;;;;18.37;15.27;;;;;;;14.64;100.00;98913.69;4983800;28;20207;-78
2023/05/21 03:25:13;;;;;;;21.13;15.70;;;;;;;14.63;100.00;98910.19;4990580;28;20199;-78
2023/05/21 03:27:41;;;;;;;20.73;15.47;;;;;;;14.56;100.00;98909.84;4989307;28;20195;-78
2023/05/21 03:30:10;;;;;;;22.20;16.17;;;;;;;14.70;100.00;98907.84;4985463;28;20209;-78
2023/05/21 03:32:40;;;;;;;19.57;15.57;;;;;;;14.60;100.00;98913.97;4983586;28;20413;-78
2023/05/21 03:35:08;;;;;;;21.40;16.03;;;;;;;14.67;100.00;98916.06;4990768;28;20230;-78
2023/05/21 03:37:38;;;;;;;21.40;16.20;;;;;;;14.69;100.00;98919.50;4959527;28;20209;-77
2023/05/21 03:40:09;;;;;;;23.83;16.77;;;;;;;14.72;100.00;98917.41;4990655;28;20195;-78
2023/05/21 03:42:37;;;;;;;21.47;17.03;;;;;;;14.72;100.00;98917.41;4988390;28;20223;-78
2023/05/21 03:45:07;;;;;;;21.70;15.97;;;;;;;14.70;100.00;98913.19;4994586;28;20191;-78
2023/05/21 03:47:35;;;;;;;22.10;17.10;;;;;;;14.79;100.00;98923.06;4992055;28;20278;-78
2023/05/21 03:50:05;;;;;;;21.27;15.93;;;;;;;14.81;100.00;98921.09;4987963;28;20222;-78
2023/05/21 03:52:33;;;;;;;23.63;16.97;;;;;;;14.74;100.00;98914.59;4997071;28;20219;-78
2023/05/21 03:55:04;;;;;;;22.73;16.50;;;;;;;14.81;100.00;98916.63;4994253;28;20195;-78
2023/05/21 03:57:32;;;;;;;19.20;15.47;;;;;;;14.77;100.00;98915.19;4985028;28;20195;-78
2023/05/21 04:00:01;;;;;;;20.53;15.73;;;;;;;14.77;100.00;98904.53;4995152;28;20199;-78
2023/05/21 04:02:29;;;;;;;20.13;14.73;;;;;;;14.87;100.00;98916.09;4996877;28;20241;-78
2023/05/21 04:04:57;;;;;;;19.43;15.53;;;;;;;14.99;100.00;98916.03;4992900;28;20278;-78
2023/05/21 04:07:26;;;;;;;21.33;16.27;;;;;;;14.96;100.00;98924.25;4993887;28;20203;-77
2023/05/21 04:09:54;;;;;;;21.10;15.80;;;;;;;14.96;100.00;98921.59;4992382;28;20195;-78
2023/05/21 04:12:25;;;;;;;21.80;15.73;;;;;;;14.83;100.00;98921.81;4990182;28;20234;-78
2023/05/21 04:14:53;;;;;;;23.13;16.33;;;;;;;14.83;100.00;98920.00;4993812;28;20210;-78
2023/05/21 04:17:21;;;;;;;20.70;16.67;;;;;;;14.78;100.00;98924.03;4991436;28;20195;-78
2023/05/21 04:19:51;;;;;;;22.60;15.43;;;;;;;14.82;100.00;98920.97;4993569;28;20229;-78
2023/05/21 04:22:20;;;;;;;21.50;15.57;;;;;;;14.93;100.00;98919.19;4992858;28;20198;-77
2023/05/21 04:24:48;;;;;;;24.50;16.80;;;;;;;14.80;100.00;98919.41;4989968;28;20191;-78
2023/05/21 04:27:18;;;;;;;18.40;14.93;;;;;;;14.99;100.00;98924.03;4986210;28;20210;-78
2023/05/21 04:29:48;;;;;;;19.80;15.93;;;;;;;14.94;100.00;98912.88;4991158;28;20202;-78
2023/05/21 04:32:18;;;;;;;24.00;15.87;;;;;;;14.81;100.00;98919.28;4996182;28;20230;-78
2023/05/21 04:34:46;;;;;;;21.10;15.70;;;;;;;14.83;100.00;98916.47;4990760;28;20225;-78
2023/05/21 04:37:16;;;;;;;22.40;16.23;;;;;;;14.95;100.00;98925.25;4991164;28;20218;-78
2023/05/21 04:39:45;;;;;;;19.87;15.53;;;;;;;14.81;100.00;98921.94;4991575;28;20203;-77
2023/05/21 04:42:13;;;;;;;22.97;16.17;;;;;;;14.82;100.00;98926.31;4987497;28;20249;-78
2023/05/21 04:44:43;;;;;;;21.27;15.90;;;;;;;14.89;100.00;98927.47;4983118;28;20277;-78
2023/05/21 04:47:14;;;;;;;22.93;16.50;;;;;;;14.90;100.00;98922.97;4990000;28;20359;-78
2023/05/21 04:49:43;;;;;;;22.20;15.97;;;;;;;14.87;100.00;98923.25;4986144;28;20209;-78
2023/05/21 04:52:11;;;;;;;22.90;16.83;;;;;;;14.87;100.00;98917.94;4996003;28;20191;-77
2023/05/21 04:54:40;;;;;;;19.70;16.40;;;;;;;14.77;100.00;98922.34;4986680;28;20229;-78
2023/05/21 04:57:09;;;;;;;22.43;16.67;;;;;;;14.94;100.00;98923.56;4994620;28;20209;-78
2023/05/21 04:59:38;;;;;;;21.10;16.50;;;;;;;15.07;100.00;98926.88;4992806;28;20222;-78
2023/05/21 05:02:06;;;;;;;22.33;16.80;;;;;;;14.95;100.00;98926.09;4990130;28;20203;-78
2023/05/21 05:04:36;;;;;;;23.70;16.33;;;;;;;14.95;100.00;98920.75;4987950;28;20228;-78
2023/05/21 05:07:04;;;;;;;20.57;16.73;;;;;;;15.08;100.00;98917.91;4985126;28;20231;-78
2023/05/21 05:09:33;;;;;;;20.97;16.00;;;;;;;15.03;100.00;98917.44;4992948;28;20203;-78
2023/05/21 05:12:01;;;;;;;19.70;16.87;;;;;;;14.93;100.00;98924.53;4986606;28;20245;-78
2023/05/21 05:14:29;;;;;;;24.77;17.63;;;;;;;14.98;100.00;98923.19;4995298;28;20254;-78
2023/05/21 05:16:59;;;;;;;22.23;17.97;;;;;;;14.91;100.00;98921.16;4991944;28;20658;-78
2023/05/21 05:19:28;;;;;;;21.13;16.67;;;;;;;15.04;100.00;98922.63;4992232;28;20191;-77
2023/05/21 05:21:58;;;;;;;20.40;17.03;;;;;;;14.92;100.00;98917.50;4989854;28;20227;-77
2023/05/21 05:24:26;;;;;;;20.87;16.70;;;;;;;14.99;100.00;98922.19;4991549;28;20656;-78
2023/05/21 05:26:54;;;;;;;23.27;17.73;;;;;;;14.98;100.00;98927.66;4991440;28;20205;-78
2023/05/21 05:29:23;;;;;;;23.47;17.20;;;;;;;14.94;100.00;98919.06;4985850;28;20195;-78
2023/05/21 05:31:51;;;;;;;23.87;17.50;;;;;;;14.98;100.00;98922.34;4988567;28;20203;-78
2023/05/21 05:34:20;;;;;;;21.70;16.83;;;;;;;15.06;100.00;98922.53;4991063;28;20225;-78
2023/05/21 05:36:49;;;;;;;21.03;17.27;;;;;;;15.18;100.00;98926.78;4988389;28;20202;-78
2023/05/21 05:39:19;;;;;;;22.80;17.00;;;;;;;15.21;100.00;98921.19;4989970;28;20187;-78
2023/05/21 05:41:47;;;;;;;22.37;16.83;;;;;;;15.29;100.00;98926.69;4991046;28;20242;-78
2023/05/21 05:44:16;;;;;;;22.17;16.70;;;;;;;15.22;100.00;98930.88;4987350;28;20196;-78
2023/05/21 05:46:44;;;;;;;20.40;16.47;;;;;;;15.30;100.00;98936.38;4992319;28;20245;-78
2023/05/21 05:49:13;;;;;;;19.93;16.10;;;;;;;15.51;100.00;98932.81;4991260;28;20206;-78
2023/05/21 05:51:41;;;;;;;22.13;16.53;;;;;;;15.44;100.00;98924.50;4992333;28;20199;-77
2023/05/21 05:54:10;;;;;;;27.00;16.67;;;;;;;15.40;100.00;98934.59;4992009;28;20225;-78
2023/05/21 05:56:40;;;;;;;21.30;17.00;;;;;;;15.42;100.00;98935.31;4988410;28;20199;-78
2023/05/21 05:59:09;;;;;;;21.37;16.93;;;;;;;15.35;100.00;98933.34;4988786;28;20650;-78
2023/05/21 06:01:37;;;;;;;20.63;16.87;;;;;;;15.42;100.00;98926.47;4986276;28;20207;-78
2023/05/21 06:04:05;;;;;;;22.33;16.80;;;;;;;15.45;100.00;98923.53;4990594;28;20227;-78
2023/05/21 06:06:33;;;;;;;22.57;17.43;;;;;;;15.56;100.00;98920.78;4988181;28;20234;-78
2023/05/21 06:09:02;;;;;;;21.03;17.53;;;;;;;15.68;100.00;98913.53;4992811;28;20657;-78
2023/05/21 06:11:31;;;;;;;21.57;17.03;;;;;;;15.64;100.00;98917.47;4986742;28;20654;-78
2023/05/21 06:14:01;;;;;;;19.53;16.33;;;;;;;15.73;100.00;98916.66;4991470;28;20227;-77
2023/05/21 06:16:30;;;;;;;26.97;16.73;;;;;;;15.81;100.00;98919.44;4989138;28;20199;-78
2023/05/21 06:18:59;;;;;;;22.57;16.90;;;;;;;15.97;100.00;98918.94;4990266;28;20211;-78
2023/05/21 06:21:27;;;;;;;21.00;16.83;;;;;;;16.15;100.00;98922.63;4986441;28;20203;-78
2023/05/21 06:23:55;;;;;;;21.27;16.07;;;;;;;16.08;100.00;98921.47;4990065;28;20195;-78
2023/05/21 06:26:25;;;;;;;20.40;16.07;;;;;;;16.15;100.00;98922.63;4994244;28;20199;-78
2023/05/21 06:28:53;;;;;;;22.30;19.37;;;;;;;16.33;100.00;98913.91;4982088;28;20209;-78
2023/05/21 06:31:23;;;;;;;21.57;18.80;;;;;;;16.37;100.00;98918.81;4989659;28;20282;-78
2023/05/21 06:33:51;;;;;;;30.37;22.50;;;;;;;16.44;100.00;98914.59;4988506;28;20262;-78
2023/05/21 06:36:20;;;;;;;22.50;18.10;;;;;;;16.41;100.00;98906.88;4992170;28;20203;-78
2023/05/21 06:38:48;;;;;;;26.17;18.60;;;;;;;16.65;100.00;98910.91;4988865;28;20214;-78
2023/05/21 06:41:17;;;;;;;23.27;18.53;;;;;;;16.58;100.00;98903.47;4987865;28;20269;-78
2023/05/21 06:43:45;;;;;;;25.23;18.43;;;;;;;16.58;100.00;98905.28;4987141;28;20199;-78
2023/05/21 06:46:14;;;;;;;22.83;18.20;;;;;;;16.66;100.00;98908.09;4988582;28;20187;-78
2023/05/21 06:48:45;;;;;;;21.57;17.00;;;;;;;17.01;100.00;98910.19;4988626;28;20253;-78
2023/05/21 06:51:13;;;;;;;20.20;16.93;;;;;;;17.01;100.00;98896.81;4983383;28;20207;-78
2023/05/21 06:53:42;;;;;;;23.13;16.93;;;;;;;17.05;100.00;98900.88;4987102;28;20238;-78
2023/05/21 06:56:11;;;;;;;18.67;15.93;;;;;;;17.17;100.00;98907.72;4988052;28;20237;-79
2023/05/21 06:58:41;;;;;;;19.30;15.30;;;;;;;17.14;100.00;98908.03;4987022;28;20217;-78
2023/05/21 07:01:10;;;;;;;19.03;15.87;;;;;;;17.30;100.00;98903.91;4950504;28;20235;-78
2023/05/21 07:03:39;;;;;;;19.87;16.57;;;;;;;17.62;100.00;98901.63;4953019;28;20192;-78
2023/05/21 07:06:08;;;;;;;18.37;15.60;;;;;;;17.71;100.00;98906.13;4947706;28;20315;-78
2023/05/21 07:08:37;;;;;;;18.30;15.53;;;;;;;17.72;100.00;98901.59;4952914;28;20238;-78
2023/05/21 07:11:06;;;;;;;17.67;15.77;;;;;;;17.74;100.00;98904.97;4947847;28;20203;-79
2023/05/21 07:13:35;;;;;;;21.70;16.77;;;;;;;17.73;100.00;98904.13;4948639;29;20731;-78
2023/05/21 07:16:03;;;;;;;19.40;16.03;;;;;;;17.80;100.00;98903.53;4944683;28;20227;-78
2023/05/21 07:18:32;;;;;;;19.80;15.47;;;;;;;18.07;100.00;98899.97;4950117;28;20206;-78
2023/05/21 07:21:00;;;;;;;19.23;16.17;;;;;;;17.89;100.00;98894.59;4988074;28;20198;-78
2023/05/21 07:23:30;;;;;;;20.60;16.10;;;;;;;18.16;100.00;98899.06;4990564;28;20203;-79
2023/05/21 07:25:58;;;;;;;19.33;15.67;;;;;;;18.13;100.00;98897.50;4990390;28;20202;-78
2023/05/21 07:28:26;;;;;;;18.23;14.53;;;;;;;18.25;100.00;98890.09;4982019;28;20206;-78
2023/05/21 07:30:55;;;;;;;20.47;15.67;;;;;;;18.24;100.00;98891.09;4990491;28;20194;-77
2023/05/21 07:33:23;;;;;;;17.37;14.73;;;;;;;18.43;100.00;98890.06;4990715;28;20187;-79
2023/05/21 07:35:52;;;;;;;18.10;15.83;;;;;;;18.52;100.00;98892.66;4985475;28;20225;-79
2023/05/21 07:38:20;;;;;;;17.87;15.50;;;;;;;18.63;100.00;98882.72;4982198;28;20569;-79
2023/05/21 07:40:50;;;;;;;18.67;15.67;;;;;;;18.58;100.00;98893.91;4981640;28;20210;-79
2023/05/21 07:43:21;;;;;;;21.63;15.63;;;;;;;18.94;100.00;98885.81;4985042;28;20342;-78
2023/05/21 07:45:49;;;;;;;18.87;15.10;;;;;;;18.83;100.00;98877.03;4988157;28;20242;-79
2023/05/21 07:48:20;;;;;;;16.55;14.75;;;;;;;19.02;100.00;98872.44;4990448;28;20191;-78
2023/05/21 07:50:48;;;;;;;18.57;15.27;;;;;;;19.07;100.00;98878.16;4986431;28;20213;-79
2023/05/21 07:53:17;;;;;;;17.23;15.43;;;;;;;19.44;100.00;98873.31;4986477;28;20202;-79
2023/05/21 07:55:47;;;;;;;17.67;14.63;;;;;;;19.38;100.00;98870.44;4990026;28;20223;-79
2023/05/21 07:58:18;;;;;;;18.52;14.90;;;;;;;19.43;100.00;98854.69;4981836;28;20202;-79
2023/05/21 08:00:49;;;;;;;16.67;14.97;;;;;;;19.60;100.00;98863.69;4930978;29;20189;-79
2023/05/21 08:03:18;;;;;;;16.53;14.67;;;;;;;19.66;100.00;98865.69;4930767;29;20197;-79
2023/05/21 08:05:49;;;;;;;16.93;14.27;;;;;;;19.79;100.00;98865.25;4927497;29;20812;-79
2023/05/21 08:08:20;;;;;;;17.63;14.60;;;;;;;19.91;100.00;98863.94;4930582;29;20209;-79
2023/05/21 08:10:49;;;;;;;16.30;14.07;;;;;;;19.97;100.00;98857.88;4894224;29;20206;-79
2023/05/21 08:13:19;;;;;;;14.75;13.18;;;;;;;20.17;100.00;98861.09;4887197;29;20195;-79
2023/05/21 08:15:48;;;;;;;16.73;13.77;;;;;;;20.25;100.00;98867.31;4888491;29;20233;-78
2023/05/21 08:18:22;;;;;;;17.03;14.13;;;;;;;20.33;100.00;98868.34;4903730;28;20209;-78
2023/05/21 08:20:51;;;;;;;20.63;14.20;;;;;;;20.33;100.00;98863.81;4947557;28;20243;-78
2023/05/21 08:23:19;;;;;;;16.48;14.13;;;;;;;20.50;100.00;98865.53;4948669;29;20200;-78
2023/05/21 08:25:48;;;;;;;15.65;13.80;;;;;;;20.72;100.00;98858.59;4944400;28;20283;-78
2023/05/21 08:28:16;;;;;;;35.05;27.50;;;;;;;20.71;100.00;98856.09;4959781;28;20209;-78
2023/05/21 08:30:45;;;;;;;17.80;14.93;;;;;;;20.80;100.00;98866.69;4991958;28;20205;-79
2023/05/21 08:33:14;;;;;;;15.65;13.50;;;;;;;21.15;100.00;98864.59;4993123;28;20199;-78
2023/05/21 08:35:42;;;;;;;14.38;12.85;;;;;;;21.35;100.00;98863.22;4990755;28;20262;-79
2023/05/21 08:38:10;;;;;;;16.00;14.38;;;;;;;21.18;100.00;98866.94;4988113;28;20214;-79
2023/05/21 08:40:40;;;;;;;15.35;13.73;;;;;;;21.13;100.00;98861.22;4998735;28;20643;-79
2023/05/21 08:43:12;;;;;;;16.33;14.30;;;;;;;21.14;100.00;98862.91;4993472;28;20199;-78
2023/05/21 08:45:44;;;;;;;16.10;13.32;;;;;;;21.32;100.00;98868.09;4987843;28;20227;-79
2023/05/21 08:48:16;;;;;;;15.73;13.57;;;;;;;21.67;100.00;98856.81;4996078;28;20607;-79
2023/05/21 08:50:46;;;;;;;16.35;14.10;;;;;;;21.80;100.00;98858.09;4994227;28;20246;-79
2023/05/21 08:53:15;;;;;;;14.55;13.02;;;;;;;21.90;100.00;98851.47;4991916;28;20597;-79
2023/05/21 08:55:56;;;;;;;15.43;13.57;;;;;;;22.26;100.00;98850.91;4993208;28;20725;-79
2023/05/21 08:58:24;;;;;;;15.00;12.98;;;;;;;22.34;100.00;98845.47;4984499;28;20273;-78
2023/05/21 09:00:55;;;;;;;14.25;12.70;;;;;;;22.51;100.00;98854.28;4991332;28;20195;-79
2023/05/21 09:03:26;;;;;;;13.43;12.07;;;;;;;22.68;100.00;98853.13;4989615;28;20203;-79
2023/05/21 09:05:55;;;;;;;14.02;12.25;;;;;;;22.91;100.00;98849.53;4992991;28;20260;-78
2023/05/21 09:08:29;;;;;;;13.65;12.25;;;;;;;23.08;100.00;98846.47;4995624;28;20218;-78
2023/05/21 09:10:58;;;;;;;13.85;12.48;;;;;;;22.82;100.00;98848.75;4992771;28;20202;-78
2023/05/21 09:13:30;;;;;;;14.45;13.00;;;;;;;22.66;100.00;98844.34;4986240;28;20199;-80
2023/05/21 09:15:59;;;;;;;16.27;12.75;;;;;;;22.89;100.00;98838.94;4989215;28;20249;-79
2023/05/21 09:18:29;;;;;;;15.77;12.27;;;;;;;22.69;100.00;98835.88;4992702;28;20203;-79
2023/05/21 09:20:59;;;;;;;14.68;12.40;;;;;;;22.79;100.00;98841.03;4990826;28;20578;-79
2023/05/21 09:23:29;;;;;;;13.60;12.05;;;;;;;22.67;100.00;98834.38;4989461;28;20203;-79
2023/05/21 09:25:57;;;;;;;14.10;12.70;;;;;;;22.42;100.00;98840.00;4995709;28;20199;-79
2023/05/21 09:28:26;;;;;;;14.48;12.98;;;;;;;22.42;100.00;98845.41;4990955;28;20210;-80
2023/05/21 09:30:54;;;;;;;13.73;12.25;;;;;;;22.62;100.00;98834.94;4990052;28;20218;-79
2023/05/21 09:33:29;;;;;;;14.07;12.65;;;;;;;22.63;100.00;98833.06;4991774;28;20195;-79
2023/05/21 09:35:57;;;;;;;15.57;12.65;;;;;;;22.87;100.00;98834.72;4989673;28;20229;-79
2023/05/21 09:38:26;;;;;;;14.48;12.25;;;;;;;23.19;100.00;98834.38;4986409;28;20199;-79
2023/05/21 09:40:56;;;;;;;13.82;11.98;;;;;;;23.21;100.00;98836.88;4990900;28;20191;-80
2023/05/21 09:43:25;;;;;;;13.95;11.77;;;;;;;23.41;100.00;98829.88;4992418;28;20430;-80
2023/05/21 09:45:55;;;;;;;15.82;12.43;;;;;;;23.39;100.00;98835.47;4991287;28;20646;-80
2023/05/21 09:48:35;;;;;;;14.20;12.75;;;;;;;23.50;100.00;98836.84;4995499;28;20191;-80
2023/05/21 09:51:13;;;;;;;13.52;12.10;;;;;;;23.39;100.00;98830.06;4993751;28;20199;-79
2023/05/21 09:53:48;;;;;;;14.05;11.93;;;;;;;23.49;100.00;98829.78;4997350;28;20207;-80
2023/05/21 09:56:21;;;;;;;14.07;12.05;;;;;;;23.79;100.00;98827.03;4994649;28;20216;-79
2023/05/21 09:58:53;;;;;;;13.75;12.10;;;;;;;24.08;100.00;98828.81;4991754;28;20267;-80
2023/05/21 10:01:21;;;;;;;13.10;11.50;;;;;;;24.25;100.00;98824.81;4992110;28;20199;-80
2023/05/21 10:03:56;;;;;;;12.95;11.35;;;;;;;24.33;100.00;98824.72;4991185;28;20203;-79
2023/05/21 10:06:26;;;;;;;13.15;11.38;;;;;;;24.47;100.00;98812.94;4994517;28;20227;-80
2023/05/21 10:08:56;;;;;;;12.73;11.45;;;;;;;25.15;100.00;98815.97;4994569;28;20206;-79
2023/05/21 10:11:31;;;;;;;12.77;11.20;;;;;;;25.03;100.00;98798.59;4988743;28;20237;-80
2023/05/21 10:14:04;;;;;;;13.27;11.88;;;;;;;24.97;100.00;98805.59;4988808;28;20199;-79
2023/05/21 10:16:36;;;;;;;14.18;12.68;;;;;;;25.25;100.00;98805.59;4989925;28;20302;-80
2023/05/21 10:19:09;;;;;;;12.57;11.15;;;;;;;25.38;100.00;98802.94;4991268;28;20210;-79
2023/05/21 10:21:39;;;;;;;15.25;11.52;;;;;;;25.68;100.00;98799.94;4989502;28;20206;-79
2023/05/21 10:24:09;;;;;;;13.02;11.18;;;;;;;26.17;99.16;98793.38;4994264;28;20195;-80
2023/05/21 10:26:38;;;;;;;12.13;10.52;;;;;;;26.29;100.00;98790.88;4990842;28;20195;-79
2023/05/21 10:29:08;;;;;;;12.70;10.85;;;;;;;26.38;92.27;98784.22;4992060;28;20199;-80
2023/05/21 10:31:38;;;;;;;12.82;11.23;;;;;;;26.69;91.12;98787.13;4990083;28;20199;-80
2023/05/21 10:34:10;;;;;;;12.13;10.93;;;;;;;26.01;90.72;98785.63;4991710;28;20191;-80
2023/05/21 10:36:38;;;;;;;12.52;11.25;;;;;;;26.18;96.78;98784.19;4989437;28;20225;-79
2023/05/21 10:39:08;;;;;;;12.13;11.02;;;;;;;26.03;99.69;98778.94;4991967;28;20226;-84
2023/05/21 10:41:47;;;;;;;12.15;11.00;;;;;;;26.43;96.69;98768.97;4990237;28;20201;-79
2023/05/21 10:44:23;;;;;;;11.63;10.50;;;;;;;26.45;88.83;98774.22;4986750;28;20237;-79
2023/05/21 10:47:27;;;;;;;11.15;10.15;;;;;;;26.29;88.77;98789.00;4990241;28;20257;-79
2023/05/21 10:50:16;;;;;;;11.02;9.93;;;;;;;25.98;89.89;98783.34;4987578;28;20210;-79
2023/05/21 10:53:00;;;;;;;12.05;10.60;;;;;;;25.78;94.70;98776.00;4989800;28;20230;-79
2023/05/21 10:55:47;;;;;;;11.85;10.65;;;;;;;25.85;91.45;98775.97;4989621;28;20194;-79
2023/05/21 10:58:50;;;;;;;12.55;10.80;;;;;;;25.58;94.46;98775.06;4982703;28;20209;-78
2023/05/21 11:01:19;;;;;;;13.25;11.13;;;;;;;25.65;94.16;98774.03;4990612;28;20199;-78
2023/05/21 11:03:47;;;;;;;11.95;10.48;;;;;;;25.60;96.23;98772.97;4989329;28;20261;-79
2023/05/21 11:06:26;;;;;;;12.73;10.98;;;;;;;25.62;94.92;98781.75;4988236;28;20301;-79
2023/05/21 11:08:54;;;;;;;12.32;11.18;;;;;;;25.77;95.39;98768.91;4985911;28;20206;-79
2023/05/21 11:11:43;;;;;;;11.25;10.05;;;;;;;26.09;93.16;98763.72;4987171;28;20195;-79
2023/05/21 11:14:31;;;;;;;11.50;10.40;;;;;;;26.32;90.20;98766.00;4983930;28;20202;-79
2023/05/21 11:17:00;;;;;;;11.10;10.00;;;;;;;26.61;86.97;98768.31;4982128;28;20516;-79
2023/05/21 11:19:37;;;;;;;11.73;10.52;;;;;;;26.93;80.54;98765.78;4993494;28;20195;-79
2023/05/21 11:22:23;;;;;;;11.05;9.80;;;;;;;26.97;84.07;98767.84;4988610;28;20194;-79